Time;durP1;ratioP1;P1;durP2;ratioP2;P2;SDS_P1;SDS_P2;PMS_P1;PMS_P2;Temp;Humidity;BMP_temperature;BMP_pressure;BME280_temperature;BME280_humidity;BME280_pressure;Samples;Min_cycle;Max_cycle;Signal;HPM_P1;HPM_P2
2023/01/06 00:00:36;;;;;;;13.10;8.50;;;10.90;99.90;;;;;;5076632;28;20051;-75
2023/01/06 00:03:02;;;;;;;11.35;8.07;;;10.90;99.90;;;;;;5076491;28;20036;-74
2023/01/06 00:05:29;;;;;;;16.65;8.60;;;10.90;99.90;;;;;;5076542;28;20538;-74
2023/01/06 00:07:56;;;;;;;19.20;9.70;;;10.90;99.90;;;;;;5076968;28;20093;-74
2023/01/06 00:10:22;;;;;;;16.88;8.90;;;10.90;99.90;;;;;;5076358;28;20036;-74
2023/01/06 00:12:48;;;;;;;18.55;10.82;;;10.90;99.90;;;;;;5075050;28;20512;-74
2023/01/06 00:15:15;;;;;;;15.88;9.75;;;10.90;99.90;;;;;;5058505;28;20041;-74
2023/01/06 00:17:41;;;;;;;17.70;9.82;;;10.90;99.90;;;;;;5076157;28;20036;-74
2023/01/06 00:20:07;;;;;;;19.10;10.82;;;10.90;99.90;;;;;;5058507;28;20055;-75
2023/01/06 00:22:33;;;;;;;21.13;9.40;;;10.90;99.90;;;;;;5058978;28;20373;-74
2023/01/06 00:24:59;;;;;;;16.17;10.10;;;10.90;99.90;;;;;;5076004;28;20044;-74
2023/01/06 00:27:25;;;;;;;15.82;10.07;;;10.90;99.90;;;;;;5076022;28;20074;-72
2023/01/06 00:29:50;;;;;;;17.08;9.40;;;10.90;99.90;;;;;;5075894;28;20044;-75
2023/01/06 00:32:17;;;;;;;23.52;10.27;;;11.00;99.90;;;;;;5058335;28;20041;-75
2023/01/06 00:34:43;;;;;;;18.05;11.85;;;10.90;99.90;;;;;;5076001;28;20394;-74
2023/01/06 00:37:08;;;;;;;16.33;10.68;;;10.90;99.90;;;;;;5076146;28;20042;-75
2023/01/06 00:39:34;;;;;;;18.02;9.95;;;10.90;99.90;;;;;;5058350;28;20052;-75
2023/01/06 00:42:02;;;;;;;12.77;9.30;;;10.90;99.90;;;;;;5058213;28;20040;-75
2023/01/06 00:44:32;;;;;;;22.08;9.73;;;10.90;99.90;;;;;;5075829;28;20074;-74
2023/01/06 00:46:58;;;;;;;18.98;10.25;;;11.00;99.90;;;;;;5075572;28;20123;-74
2023/01/06 00:49:24;;;;;;;20.65;9.55;;;11.00;99.90;;;;;;5057802;28;20128;-74
2023/01/06 00:51:50;;;;;;;19.52;10.50;;;11.00;99.90;;;;;;5075487;28;20037;-75
2023/01/06 00:54:16;;;;;;;17.55;9.60;;;11.00;99.90;;;;;;5075496;28;20040;-75
2023/01/06 00:56:46;;;;;;;12.45;8.77;;;11.00;99.90;;;;;;5075467;28;20044;-74
2023/01/06 00:59:14;;;;;;;14.30;9.10;;;11.00;99.90;;;;;;5058546;28;20366;-75
2023/01/06 01:01:41;;;;;;;16.42;9.40;;;11.00;99.90;;;;;;5075399;28;20044;-74
2023/01/06 01:04:07;;;;;;;18.65;9.73;;;11.00;99.90;;;;;;5075028;28;20041;-74
2023/01/06 01:06:33;;;;;;;18.08;8.93;;;11.10;99.90;;;;;;5074046;28;20042;-75
2023/01/06 01:08:59;;;;;;;13.88;9.18;;;11.10;99.90;;;;;;5075300;28;20128;-74
2023/01/06 01:14:11;;;;;;;13.40;8.85;;;11.10;99.90;;;;;;5075361;28;20059;-75
2023/01/06 01:16:38;;;;;;;15.95;7.80;;;11.10;99.90;;;;;;5074933;28;20041;-74
2023/01/06 01:19:04;;;;;;;11.32;8.32;;;11.00;99.90;;;;;;5074948;28;20040;-74
2023/01/06 01:21:30;;;;;;;15.98;9.35;;;11.10;99.90;;;;;;5075226;28;20372;-74
2023/01/06 01:23:56;;;;;;;14.40;7.50;;;11.10;99.90;;;;;;5057553;28;20124;-74
2023/01/06 01:26:22;;;;;;;11.27;8.18;;;11.10;99.90;;;;;;5074613;28;20048;-75
2023/01/06 01:28:48;;;;;;;17.27;7.63;;;11.00;99.90;;;;;;5057960;28;20131;-74
2023/01/06 01:31:15;;;;;;;11.02;6.57;;;11.00;99.90;;;;;;5057186;28;20041;-74
2023/01/06 01:33:42;;;;;;;8.35;6.30;;;11.00;99.90;;;;;;5074768;28;20123;-74
2023/01/06 01:36:11;;;;;;;12.48;6.93;;;11.00;99.90;;;;;;5074617;28;20043;-74
2023/01/06 01:38:37;;;;;;;7.00;5.80;;;11.00;99.90;;;;;;5074258;28;20370;-74
2023/01/06 01:41:03;;;;;;;9.50;5.60;;;11.00;99.90;;;;;;5074620;28;20109;-74
2023/01/06 01:43:48;;;;;;;9.88;5.72;;;11.00;99.90;;;;;;5075403;28;20105;-73
2023/01/06 01:46:22;;;;;;;5.88;5.28;;;11.00;99.90;;;;;;5074770;28;20068;-74
2023/01/06 01:48:50;;;;;;;7.82;5.82;;;11.00;99.90;;;;;;5074007;28;20045;-74
2023/01/06 01:51:19;;;;;;;11.00;5.78;;;11.00;99.90;;;;;;5074673;28;20040;-73
2023/01/06 01:53:50;;;;;;;9.90;5.85;;;11.00;99.90;;;;;;5074396;28;20474;-73
2023/01/06 01:56:21;;;;;;;10.93;5.63;;;10.90;99.90;;;;;;5075192;28;20045;-74
2023/01/06 01:59:14;;;;;;;11.25;6.65;;;11.00;99.90;;;;;;5075909;28;20062;-74
2023/01/06 02:01:40;;;;;;;10.15;6.20;;;11.00;99.90;;;;;;5048548;28;20079;-74
2023/01/06 02:04:07;;;;;;;13.60;6.68;;;11.00;99.90;;;;;;5074124;28;20048;-73
2023/01/06 02:06:33;;;;;;;12.07;6.32;;;10.90;99.90;;;;;;5056545;28;20586;-74
2023/01/06 02:09:05;;;;;;;8.43;6.20;;;11.00;99.90;;;;;;5074737;28;20044;-74
2023/01/06 02:11:34;;;;;;;9.35;5.97;;;11.00;99.90;;;;;;5074702;28;20033;-74
2023/01/06 02:14:12;;;;;;;7.50;5.70;;;11.00;99.90;;;;;;5073912;28;20389;-74
2023/01/06 02:17:08;;;;;;;10.90;5.88;;;11.00;99.90;;;;;;5074986;28;20124;-75
2023/01/06 02:20:11;;;;;;;7.45;6.20;;;11.00;99.90;;;;;;5073909;28;20041;-74
2023/01/06 02:23:07;;;;;;;9.77;6.00;;;10.90;99.90;;;;;;5056743;28;20083;-75
2023/01/06 02:25:41;;;;;;;11.85;6.40;;;10.90;99.90;;;;;;5074102;28;20045;-74
2023/01/06 02:28:29;;;;;;;10.63;7.03;;;10.90;99.90;;;;;;5074673;28;20074;-75
2023/01/06 02:31:19;;;;;;;7.95;5.63;;;11.00;99.90;;;;;;5074354;28;20098;-73
2023/01/06 02:34:12;;;;;;;9.60;5.68;;;10.90;99.90;;;;;;5056103;28;20469;-73
2023/01/06 02:36:48;;;;;;;8.52;5.65;;;11.00;99.90;;;;;;5056005;28;20055;-72
2023/01/06 02:39:25;;;;;;;8.05;6.82;;;10.90;99.90;;;;;;5056473;28;20044;-73
2023/01/06 02:42:10;;;;;;;8.35;5.68;;;10.90;99.90;;;;;;5057007;28;20354;-72
2023/01/06 02:45:00;;;;;;;6.68;5.22;;;11.00;99.90;;;;;;5074244;28;20460;-73
2023/01/06 02:47:34;;;;;;;10.40;5.53;;;10.90;99.90;;;;;;5074271;28;20128;-73
2023/01/06 02:50:17;;;;;;;8.88;5.07;;;11.00;99.90;;;;;;5073672;28;20498;-73
2023/01/06 02:52:43;;;;;;;;;;;11.00;99.90;;;;;;5074123;28;20131;-73
2023/01/06 02:55:16;;;;;;;7.88;4.85;;;10.90;99.90;;;;;;5056005;28;19966;-73
2023/01/06 02:57:54;;;;;;;;;;;10.90;99.90;;;;;;5074732;28;20069;-73
2023/01/06 03:00:33;;;;;;;8.38;5.25;;;11.40;99.90;;;;;;5078462;28;20261;-73
2023/01/06 03:03:03;;;;;;;6.03;4.80;;;10.90;99.90;;;;;;5077413;28;20493;-73
2023/01/06 03:05:33;;;;;;;6.97;5.50;;;10.90;99.90;;;;;;5077800;28;20055;-73
2023/01/06 03:08:03;;;;;;;6.93;5.22;;;10.90;99.90;;;;;;5077616;28;20037;-73
2023/01/06 03:10:30;;;;;;;7.68;5.10;;;10.90;99.90;;;;;;5078102;28;20047;-74
2023/01/06 03:13:05;;;;;;;6.57;5.47;;;10.90;99.90;;;;;;5077349;28;20503;-73
2023/01/06 03:15:32;;;;;;;7.95;4.80;;;10.90;99.90;;;;;;5077931;28;20051;-73
2023/01/06 03:17:57;;;;;;;7.40;5.47;;;10.90;99.90;;;;;;5059683;28;20044;-73
2023/01/06 03:20:23;;;;;;;5.57;5.03;;;10.90;99.90;;;;;;5077728;28;20488;-74
2023/01/06 03:22:49;;;;;;;6.03;4.85;;;10.90;99.90;;;;;;5078957;28;20082;-72
2023/01/06 03:25:15;;;;;;;6.53;4.20;;;10.90;99.90;;;;;;5088268;28;20041;-72
2023/01/06 03:27:41;;;;;;;7.57;5.15;;;10.90;99.90;;;;;;5070957;28;20056;-72
2023/01/06 03:30:09;;;;;;;9.35;4.70;;;10.90;99.90;;;;;;5086793;28;20050;-73
2023/01/06 03:32:43;;;;;;;6.55;5.10;;;10.90;99.90;;;;;;5082682;28;20123;-73
2023/01/06 03:35:30;;;;;;;7.00;4.32;;;10.90;99.90;;;;;;5059773;28;20052;-74
2023/01/06 03:38:17;;;;;;;4.80;4.15;;;10.90;99.90;;;;;;5077306;28;20095;-73
2023/01/06 03:40:53;;;;;;;6.47;4.38;;;10.90;99.90;;;;;;5077156;28;20044;-74
2023/01/06 03:43:43;;;;;;;6.88;4.97;;;10.90;99.90;;;;;;5076997;28;20048;-74
2023/01/06 03:46:25;;;;;;;4.80;4.35;;;10.90;99.90;;;;;;5059766;28;20047;-74
2023/01/06 03:49:36;;;;;;;6.32;4.28;;;10.80;99.90;;;;;;5077076;28;20493;-74
2023/01/06 03:52:20;;;;;;;5.55;4.45;;;10.80;99.90;;;;;;5076727;28;20170;-74
2023/01/06 03:54:57;;;;;;;7.72;4.93;;;10.80;99.90;;;;;;5076737;28;20044;-74
2023/01/06 03:57:43;;;;;;;5.80;4.88;;;10.80;99.90;;;;;;5076870;28;20044;-74
2023/01/06 04:00:19;;;;;;;6.97;4.43;;;10.80;99.90;;;;;;5077642;28;20073;-74
2023/01/06 04:02:45;;;;;;;6.63;4.90;;;10.80;99.90;;;;;;5077080;28;20044;-74
2023/01/06 04:05:18;;;;;;;6.15;5.15;;;10.80;99.90;;;;;;5076512;28;20052;-74
2023/01/06 04:07:45;;;;;;;6.68;5.57;;;10.80;99.90;;;;;;5075942;28;20129;-74
2023/01/06 04:10:12;;;;;;;6.88;5.03;;;10.80;99.90;;;;;;5075564;28;20059;-73
2023/01/06 04:12:38;;;;;;;6.60;5.28;;;10.90;99.90;;;;;;5076317;28;20510;-74
2023/01/06 04:15:10;;;;;;;5.68;5.15;;;10.80;99.90;;;;;;5076656;28;20119;-74
2023/01/06 04:17:39;;;;;;;7.63;5.03;;;10.90;99.90;;;;;;5076470;28;20074;-74
2023/01/06 04:20:07;;;;;;;5.53;5.03;;;10.80;99.90;;;;;;5076539;28;20051;-74
2023/01/06 04:22:33;;;;;;;6.57;5.85;;;10.90;99.90;;;;;;5076883;28;20045;-74
2023/01/06 04:24:59;;;;;;;8.95;5.80;;;10.90;99.90;;;;;;5076610;28;20354;-74
2023/01/06 04:27:25;;;;;;;8.88;4.63;;;10.80;99.90;;;;;;5041634;28;20098;-74
2023/01/06 04:29:50;;;;;;;7.55;5.13;;;10.90;99.90;;;;;;5075962;28;20076;-74
2023/01/06 04:32:16;;;;;;;5.15;4.53;;;10.80;99.90;;;;;;5058326;28;20048;-74
2023/01/06 04:34:42;;;;;;;5.35;4.10;;;10.80;99.90;;;;;;5075915;28;20120;-75
2023/01/06 04:37:08;;;;;;;4.63;4.07;;;10.80;99.90;;;;;;5075756;28;20136;-74
2023/01/06 04:39:33;;;;;;;3.75;3.45;;;10.80;99.90;;;;;;5076308;28;20044;-74
2023/01/06 04:41:59;;;;;;;5.07;3.72;;;10.80;99.90;;;;;;5075930;28;20033;-74
2023/01/06 04:44:25;;;;;;;3.78;3.40;;;10.80;99.90;;;;;;5076228;28;20123;-74
2023/01/06 04:46:50;;;;;;;4.43;3.30;;;10.80;99.90;;;;;;5075700;28;20041;-73
2023/01/06 04:49:16;;;;;;;6.32;3.55;;;10.80;99.90;;;;;;5075388;28;20079;-74
2023/01/06 04:51:41;;;;;;;4.30;3.08;;;10.90;99.90;;;;;;5075646;28;20045;-74
2023/01/06 04:54:07;;;;;;;5.75;3.70;;;10.80;99.90;;;;;;5080103;28;20044;-72
2023/01/06 04:56:33;;;;;;;5.93;3.40;;;10.90;99.90;;;;;;5060294;28;20057;-74
2023/01/06 04:58:58;;;;;;;9.27;3.78;;;10.90;99.90;;;;;;5058134;28;20047;-74
2023/01/06 05:01:25;;;;;;;3.25;2.95;;;10.90;99.90;;;;;;5075467;28;20079;-74
2023/01/06 05:03:51;;;;;;;4.95;3.00;;;10.90;99.90;;;;;;5075568;28;20041;-74
2023/01/06 05:06:18;;;;;;;4.55;3.35;;;10.90;99.90;;;;;;5075238;28;20110;-74
2023/01/06 05:08:45;;;;;;;4.30;3.38;;;10.80;99.90;;;;;;5075371;28;20044;-74
2023/01/06 05:11:11;;;;;;;3.75;3.45;;;10.80;99.90;;;;;;5057683;28;20511;-74
2023/01/06 05:13:37;;;;;;;4.18;3.30;;;10.80;99.90;;;;;;5074283;28;20048;-74
2023/01/06 05:16:08;;;;;;;4.82;3.63;;;10.80;99.90;;;;;;5057446;28;20499;-74
2023/01/06 05:18:35;;;;;;;3.65;3.35;;;10.80;99.90;;;;;;5075456;28;20094;-74
2023/01/06 05:21:00;;;;;;;4.05;3.47;;;10.80;99.90;;;;;;5075234;28;20048;-75
2023/01/06 05:23:26;;;;;;;6.35;3.15;;;10.80;99.90;;;;;;5075561;28;20043;-75
2023/01/06 05:25:52;;;;;;;4.95;3.72;;;10.80;99.90;;;;;;5074783;28;20052;-74
2023/01/06 05:28:19;;;;;;;6.30;4.18;;;10.80;99.90;;;;;;5056827;28;20044;-74
2023/01/06 05:30:44;;;;;;;3.80;3.40;;;10.80;99.90;;;;;;5073988;28;20044;-74
2023/01/06 05:33:10;;;;;;;4.68;4.10;;;10.80;99.90;;;;;;5075537;28;20052;-74
2023/01/06 05:35:36;;;;;;;5.13;4.47;;;10.80;99.90;;;;;;5074720;28;20079;-74
2023/01/06 05:38:01;;;;;;;5.47;4.72;;;10.80;99.90;;;;;;5075231;28;20488;-74
2023/01/06 05:40:28;;;;;;;5.38;4.70;;;10.90;99.90;;;;;;5075004;28;20044;-74
2023/01/06 05:42:54;;;;;;;5.57;4.85;;;10.80;99.90;;;;;;5074535;28;20125;-74
2023/01/06 05:45:21;;;;;;;6.82;4.05;;;10.80;99.90;;;;;;5073578;28;20043;-74
2023/01/06 05:47:47;;;;;;;5.53;4.63;;;10.80;99.90;;;;;;5074654;28;20040;-74
2023/01/06 05:50:13;;;;;;;5.93;4.90;;;10.80;99.90;;;;;;5074488;28;20036;-74
2023/01/06 05:52:38;;;;;;;5.70;5.10;;;10.80;99.90;;;;;;5074071;28;20048;-73
2023/01/06 05:55:04;;;;;;;8.52;4.13;;;10.80;99.90;;;;;;5074062;28;20044;-73
2023/01/06 05:57:34;;;;;;;5.22;4.72;;;10.80;99.90;;;;;;5074478;28;20094;-74
2023/01/06 06:00:00;;;;;;;7.43;5.15;;;10.80;99.90;;;;;;5074564;28;20063;-74
2023/01/06 06:02:25;;;;;;;4.63;4.20;;;10.80;99.90;;;;;;5056623;28;20040;-74
2023/01/06 06:04:51;;;;;;;5.20;4.65;;;10.80;99.90;;;;;;5074452;28;20465;-73
2023/01/06 06:07:17;;;;;;;5.05;4.55;;;10.80;99.90;;;;;;5074352;28;20427;-74
2023/01/06 06:09:43;;;;;;;5.78;4.22;;;10.70;99.90;;;;;;5056591;28;20185;-74
2023/01/06 06:12:08;;;;;;;7.18;4.57;;;10.70;99.90;;;;;;5074185;28;20047;-74
2023/01/06 06:14:34;;;;;;;5.28;4.63;;;10.70;99.90;;;;;;5074115;28;20041;-74
2023/01/06 06:16:59;;;;;;;4.75;4.22;;;10.60;99.90;;;;;;5073693;28;20090;-73
2023/01/06 06:19:25;;;;;;;7.18;4.85;;;10.60;99.90;;;;;;5074006;28;20036;-74
2023/01/06 06:21:52;;;;;;;6.20;5.13;;;10.60;99.90;;;;;;5056369;28;20462;-74
2023/01/06 06:24:17;;;;;;;6.07;5.05;;;10.60;99.90;;;;;;5074511;28;20098;-74
2023/01/06 06:26:43;;;;;;;5.22;4.60;;;10.60;99.90;;;;;;5073938;28;20040;-75
2023/01/06 06:29:09;;;;;;;7.72;4.80;;;10.60;99.90;;;;;;5074751;28;20075;-74
2023/01/06 06:31:36;;;;;;;7.82;5.05;;;10.60;99.90;;;;;;5056141;28;20071;-73
2023/01/06 06:34:02;;;;;;;6.90;5.00;;;10.50;99.90;;;;;;5073941;28;20040;-73
2023/01/06 06:36:29;;;;;;;6.75;5.20;;;10.50;99.90;;;;;;5073688;28;20503;-74
2023/01/06 06:38:55;;;;;;;5.25;4.75;;;10.50;99.90;;;;;;5056433;28;20047;-73
2023/01/06 06:41:22;;;;;;;9.57;5.85;;;10.50;99.90;;;;;;5073632;28;20044;-73
2023/01/06 06:43:49;;;;;;;7.53;6.35;;;10.50;99.90;;;;;;5059627;28;20053;-72
2023/01/06 06:46:15;;;;;;;8.15;5.95;;;10.50;99.90;;;;;;5086787;28;20037;-71
2023/01/06 06:48:41;;;;;;;6.80;5.57;;;10.50;99.90;;;;;;5088043;28;20037;-70
2023/01/06 06:51:12;;;;;;;8.60;6.15;;;10.50;99.90;;;;;;5078941;28;20089;-72
2023/01/06 06:53:38;;;;;;;6.95;6.25;;;10.50;99.90;;;;;;5074021;28;20048;-72
2023/01/06 06:56:05;;;;;;;9.52;6.35;;;10.50;99.90;;;;;;5073498;28;20041;-72
2023/01/06 06:58:32;;;;;;;8.38;5.20;;;10.50;99.90;;;;;;5073616;28;20048;-72
2023/01/06 07:00:57;;;;;;;6.95;5.63;;;10.40;99.90;;;;;;5074424;28;20109;-72
2023/01/06 07:03:24;;;;;;;7.32;6.07;;;10.40;99.90;;;;;;5056190;28;20528;-72
2023/01/06 07:05:51;;;;;;;8.95;5.97;;;10.50;99.90;;;;;;5056679;28;20476;-73
2023/01/06 07:08:17;;;;;;;6.28;5.22;;;10.40;99.90;;;;;;5023706;28;20036;-73
2023/01/06 07:10:43;;;;;;;9.48;5.28;;;10.40;99.90;;;;;;5039202;28;20048;-73
2023/01/06 07:13:09;;;;;;;8.80;5.78;;;10.40;99.90;;;;;;5055717;28;20067;-73
2023/01/06 07:15:35;;;;;;;6.00;5.40;;;10.50;99.90;;;;;;5073555;28;20086;-72
2023/01/06 07:18:05;;;;;;;8.30;5.97;;;10.40;99.90;;;;;;5072761;28;20475;-72
2023/01/06 07:20:33;;;;;;;6.32;5.72;;;10.40;99.90;;;;;;5073472;28;20131;-72
2023/01/06 07:22:58;;;;;;;6.60;5.38;;;10.40;99.90;;;;;;5073128;28;20393;-72
2023/01/06 07:25:24;;;;;;;6.68;5.13;;;10.40;99.90;;;;;;5073909;28;20132;-74
2023/01/06 07:27:58;;;;;;;4.68;4.25;;;10.40;99.90;;;;;;5072999;28;20059;-72
2023/01/06 07:30:25;;;;;;;4.63;4.22;;;10.30;99.90;;;;;;5073336;28;20045;-72
2023/01/06 07:32:51;;;;;;;6.25;5.28;;;10.40;99.90;;;;;;5073622;28;20464;-71
2023/01/06 07:35:18;;;;;;;5.80;4.60;;;10.40;99.90;;;;;;5073218;28;20036;-73
2023/01/06 07:37:43;;;;;;;5.10;4.40;;;10.40;99.90;;;;;;5073491;28;20056;-73
2023/01/06 07:40:09;;;;;;;5.30;4.07;;;10.30;99.90;;;;;;5073096;28;20037;-73
2023/01/06 07:42:35;;;;;;;6.07;4.22;;;10.30;99.90;;;;;;5073197;28;20500;-73
2023/01/06 07:45:02;;;;;;;5.78;3.92;;;10.30;99.90;;;;;;5074754;28;20150;-73
2023/01/06 07:47:27;;;;;;;4.25;3.90;;;10.40;99.90;;;;;;5077531;28;20032;-73
2023/01/06 07:49:53;;;;;;;4.18;3.13;;;10.40;99.90;;;;;;5076924;28;20075;-73
2023/01/06 07:52:19;;;;;;;3.85;3.55;;;10.40;99.90;;;;;;5076598;28;20047;-74
2023/01/06 07:54:45;;;;;;;5.82;3.30;;;10.40;99.90;;;;;;5059592;28;20040;-73
2023/01/06 07:57:10;;;;;;;2.92;1.90;;;10.40;99.90;;;;;;5076679;28;20063;-76
2023/01/06 07:59:36;;;;;;;2.03;1.92;;;10.40;99.90;;;;;;5076566;28;20045;-74
2023/01/06 08:02:02;;;;;;;2.03;1.83;;;10.50;99.90;;;;;;5077144;28;20535;-74
2023/01/06 08:04:27;;;;;;;2.55;1.98;;;10.50;99.90;;;;;;5076530;28;20047;-75
2023/01/06 08:06:53;;;;;;;2.67;2.35;;;10.50;99.90;;;;;;5076940;28;20048;-75
2023/01/06 08:09:19;;;;;;;7.63;2.08;;;10.40;99.90;;;;;;5076692;28;20051;-75
2023/01/06 08:11:44;;;;;;;3.67;1.52;;;10.40;99.90;;;;;;5077177;28;20048;-74
2023/01/06 08:14:11;;;;;;;2.28;1.60;;;10.40;99.90;;;;;;5058939;28;20076;-76
2023/01/06 08:16:39;;;;;;;2.65;1.63;;;10.30;99.90;;;;;;5077379;28;20117;-76
2023/01/06 08:19:05;;;;;;;2.58;1.35;;;10.20;99.90;;;;;;5076404;28;20128;-74
2023/01/06 08:21:31;;;;;;;2.30;1.50;;;10.20;99.90;;;;;;5076392;28;20043;-74
2023/01/06 08:23:57;;;;;;;2.42;1.40;;;10.10;99.90;;;;;;5085453;28;20044;-76
2023/01/06 08:26:23;;;;;;;4.18;1.50;;;10.00;99.90;;;;;;5095609;28;20052;-75
2023/01/06 08:28:49;;;;;;;1.35;1.20;;;9.90;99.90;;;;;;5090014;28;20056;-75
2023/01/06 08:31:18;;;;;;;1.58;1.27;;;9.90;99.90;;;;;;5076264;28;20476;-75
2023/01/06 08:33:45;;;;;;;3.85;1.85;;;9.80;99.90;;;;;;5076497;28;20082;-75
2023/01/06 08:36:16;;;;;;;3.33;2.08;;;9.80;99.90;;;;;;5076071;28;20116;-76
2023/01/06 08:38:42;;;;;;;3.30;1.40;;;9.70;99.90;;;;;;5075946;28;20063;-74
2023/01/06 08:41:08;;;;;;;0.90;0.90;;;9.70;99.90;;;;;;5076089;28;20458;-75
2023/01/06 08:43:34;;;;;;;1.08;1.00;;;9.70;99.90;;;;;;5075533;28;20481;-75
2023/01/06 08:46:05;;;;;;;0.60;0.60;;;9.60;99.90;;;;;;5076068;28;20044;-75
2023/01/06 08:48:32;;;;;;;1.13;0.90;;;9.60;99.90;;;;;;5076226;28;20082;-76
2023/01/06 08:51:05;;;;;;;4.85;1.33;;;9.50;99.90;;;;;;5075899;28;20106;-75
2023/01/06 08:53:31;;;;;;;;;;;9.50;99.90;;;;;;5076004;28;20526;-75
2023/01/06 08:55:57;;;;;;;3.70;1.20;;;9.40;99.90;;;;;;5075556;28;20316;-76
2023/01/06 08:58:23;;;;;;;2.30;1.10;;;9.40;99.90;;;;;;5075431;28;20043;-78
2023/01/06 09:00:51;;;;;;;2.88;1.00;;;9.40;99.90;;;;;;5076210;28;20353;-76
2023/01/06 09:03:16;;;;;;;1.20;0.98;;;9.40;99.90;;;;;;5075303;28;20461;-76
2023/01/06 09:05:42;;;;;;;3.92;1.27;;;9.40;99.90;;;;;;5075308;28;20097;-76
2023/01/06 09:08:08;;;;;;;2.95;1.10;;;9.40;99.90;;;;;;5057248;28;20044;-76
2023/01/06 09:10:38;;;;;;;1.85;1.73;;;9.40;99.90;;;;;;5075514;28;20044;-76
2023/01/06 09:13:04;;;;;;;1.67;1.30;;;9.40;99.90;;;;;;5075276;28;20048;-77
2023/01/06 09:15:29;;;;;;;3.47;1.10;;;9.40;99.90;;;;;;5075168;28;20060;-75
2023/01/06 09:17:55;;;;;;;2.83;1.27;;;9.30;99.90;;;;;;5057438;28;20048;-76
2023/01/06 09:20:21;;;;;;;1.83;1.38;;;9.40;99.90;;;;;;5075397;28;20047;-77
2023/01/06 09:22:46;;;;;;;2.08;1.10;;;9.30;99.90;;;;;;5075158;28;20044;-76
2023/01/06 09:25:12;;;;;;;5.32;1.42;;;9.40;99.90;;;;;;5057432;28;20051;-76
2023/01/06 09:27:38;;;;;;;2.42;1.13;;;9.40;99.90;;;;;;5074475;28;20118;-76
2023/01/06 09:30:04;;;;;;;2.10;1.10;;;9.40;99.90;;;;;;5040610;28;20059;-77
2023/01/06 09:32:30;;;;;;;2.35;1.40;;;9.30;99.90;;;;;;5075887;28;20366;-77
2023/01/06 09:34:55;;;;;;;2.47;1.20;;;9.40;99.90;;;;;;5075120;28;20040;-77
2023/01/06 09:37:21;;;;;;;5.50;1.30;;;9.30;99.90;;;;;;5057008;28;20474;-77
2023/01/06 09:39:47;;;;;;;2.45;1.38;;;9.40;99.90;;;;;;5056998;28;20051;-77
2023/01/06 09:42:31;;;;;;;5.28;1.55;;;9.30;99.90;;;;;;5075259;28;20045;-77
2023/01/06 09:45:05;;;;;;;3.55;1.75;;;9.40;99.90;;;;;;5074781;28;20036;-76
2023/01/06 09:47:39;;;;;;;7.78;1.58;;;9.40;99.90;;;;;;5074770;28;20028;-77
2023/01/06 09:50:14;;;;;;;3.30;1.90;;;9.40;99.90;;;;;;5074771;28;20361;-77
2023/01/06 09:52:51;;;;;;;9.32;2.25;;;9.40;99.90;;;;;;5057370;28;20060;-79
2023/01/06 09:55:35;;;;;;;5.38;1.52;;;9.40;99.90;;;;;;5075388;28;20041;-76
2023/01/06 09:58:23;;;;;;;3.80;2.03;;;9.40;99.90;;;;;;5074525;28;20524;-76
2023/01/06 10:00:52;;;;;;;9.80;2.20;;;9.50;99.90;;;;;;5057154;28;20079;-76
2023/01/06 10:03:25;;;;;;;6.22;1.90;;;9.50;99.90;;;;;;5074668;28;20081;-76
2023/01/06 10:06:29;;;;;;;4.35;1.83;;;9.50;99.90;;;;;;5074398;28;20119;-77
2023/01/06 10:09:24;;;;;;;4.70;1.60;;;9.60;99.90;;;;;;5073568;28;20033;-76
2023/01/06 10:12:19;;;;;;;10.02;2.45;;;9.50;99.90;;;;;;5074229;28;20048;-75
2023/01/06 10:15:01;;;;;;;3.40;1.83;;;9.60;99.90;;;;;;5040610;28;20052;-76
2023/01/06 10:17:46;;;;;;;5.35;1.58;;;9.60;99.90;;;;;;5056756;28;20360;-77
2023/01/06 10:20:31;;;;;;;5.63;1.80;;;9.70;99.90;;;;;;5074116;28;20050;-76
2023/01/06 10:23:02;;;;;;;3.70;1.67;;;9.70;99.90;;;;;;5074092;28;20123;-76
2023/01/06 10:25:34;;;;;;;3.58;1.50;;;9.70;99.90;;;;;;5073781;28;20218;-75
2023/01/06 10:28:10;;;;;;;4.95;2.08;;;9.70;99.90;;;;;;5056029;28;20097;-75
2023/01/06 10:30:43;;;;;;;3.33;1.92;;;9.70;99.90;;;;;;5073951;28;20055;-76
2023/01/06 10:33:27;;;;;;;3.88;2.05;;;9.80;99.90;;;;;;5074211;28;20067;-75
2023/01/06 10:35:53;;;;;;;;;;;9.80;99.90;;;;;;5074919;28;20416;-76
2023/01/06 10:38:30;;;;;;;4.53;1.73;;;9.80;99.90;;;;;;5074076;28;19970;-75
2023/01/06 10:41:09;;;;;;;3.30;1.40;;;9.80;99.90;;;;;;5074128;28;20051;-75
2023/01/06 10:43:35;;;;;;;2.05;1.60;;;9.80;99.90;;;;;;5056060;28;20028;-76
2023/01/06 10:46:01;;;;;;;5.47;2.88;;;9.80;99.90;;;;;;5055755;28;20082;-76
2023/01/06 10:48:29;;;;;;;10.23;1.95;;;9.80;99.90;;;;;;5056036;28;20047;-75
2023/01/06 10:50:56;;;;;;;6.25;1.83;;;9.90;99.90;;;;;;5073852;28;20040;-72
2023/01/06 10:53:21;;;;;;;2.25;1.83;;;9.80;99.90;;;;;;5073309;28;20055;-72
2023/01/06 10:55:53;;;;;;;9.55;3.05;;;9.80;99.90;;;;;;5073452;28;20040;-70
2023/01/06 10:58:24;;;;;;;5.85;2.08;;;9.80;99.90;;;;;;5074223;28;20385;-72
2023/01/06 11:00:55;;;;;;;3.47;2.08;;;9.90;99.90;;;;;;5073503;28;20048;-73
2023/01/06 11:03:21;;;;;;;2.53;1.70;;;9.90;99.90;;;;;;5081076;28;20070;-76
2023/01/06 11:05:57;;;;;;;4.38;1.30;;;10.00;99.90;;;;;;5075725;28;20073;-75
2023/01/06 11:08:23;;;;;;;6.18;3.97;;;10.00;99.90;;;;;;5090347;28;20058;-76
2023/01/06 11:10:49;;;;;;;2.13;1.20;;;10.00;99.90;;;;;;5068694;28;20048;-76
2023/01/06 11:13:25;;;;;;;3.30;1.65;;;10.00;99.90;;;;;;5076085;28;20086;-75
2023/01/06 11:15:52;;;;;;;4.10;1.90;;;10.10;99.90;;;;;;5073942;28;20457;-76
2023/01/06 11:18:27;;;;;;;6.53;1.70;;;10.10;99.90;;;;;;5074126;28;20044;-75
2023/01/06 11:21:00;;;;;;;5.15;2.03;;;10.10;99.90;;;;;;5077366;28;20055;-75
2023/01/06 11:23:27;;;;;;;4.97;2.20;;;10.20;99.90;;;;;;5077303;28;20086;-76
2023/01/06 11:26:10;;;;;;;7.00;2.08;;;10.20;99.90;;;;;;5076987;28;20508;-77
2023/01/06 11:28:37;;;;;;;4.68;1.70;;;10.30;99.90;;;;;;5077565;28;20169;-75
2023/01/06 11:31:26;;;;;;;4.18;2.47;;;10.30;99.90;;;;;;5077349;28;20047;-74
2023/01/06 11:33:59;;;;;;;5.40;1.80;;;10.50;99.90;;;;;;5060562;28;20072;-75
2023/01/06 11:36:27;;;;;;;8.27;1.93;;;10.60;99.90;;;;;;5078040;28;20040;-77
2023/01/06 11:39:02;;;;;;;7.97;2.13;;;10.60;99.90;;;;;;5077194;28;20452;-76
2023/01/06 11:41:39;;;;;;;3.75;1.67;;;10.60;99.90;;;;;;5076954;28;20071;-75
2023/01/06 11:44:17;;;;;;;8.50;1.73;;;10.50;99.90;;;;;;5076707;28;20495;-75
2023/01/06 11:46:57;;;;;;;5.47;2.45;;;10.40;99.90;;;;;;5076851;28;20089;-75
2023/01/06 11:49:33;;;;;;;7.57;2.03;;;10.40;99.90;;;;;;5060234;28;20393;-75
2023/01/06 11:52:02;;;;;;;8.05;3.58;;;10.30;99.90;;;;;;5076809;28;20365;-75
2023/01/06 11:54:38;;;;;;;6.45;1.85;;;10.30;99.90;;;;;;5077279;28;20067;-75
2023/01/06 11:57:16;;;;;;;6.82;1.90;;;10.40;99.90;;;;;;5076751;28;20090;-75
2023/01/06 12:00:24;;;;;;;5.55;1.70;;;10.40;99.90;;;;;;5076702;28;20032;-75
2023/01/06 12:03:15;;;;;;;5.63;1.67;;;10.50;99.90;;;;;;5076480;28;20040;-75
2023/01/06 12:05:59;;;;;;;9.02;2.00;;;10.50;99.90;;;;;;5077133;28;20033;-75
2023/01/06 12:08:37;;;;;;;6.60;1.73;;;10.50;99.90;;;;;;5077139;28;20436;-76
2023/01/06 12:11:13;;;;;;;7.05;2.35;;;10.60;99.90;;;;;;5076544;28;20063;-75
2023/01/06 12:13:38;;;;;;;6.20;2.10;;;10.60;99.90;;;;;;5077390;28;20044;-75
2023/01/06 12:16:12;;;;;;;7.93;2.15;;;10.60;99.90;;;;;;5059465;28;20047;-76
2023/01/06 12:18:39;;;;;;;;;;;10.50;99.90;;;;;;5077039;28;20048;-76
2023/01/06 12:21:05;;;;;;;3.70;2.17;;;10.40;99.90;;;;;;5076461;28;19959;-75
2023/01/06 12:23:36;;;;;;;3.60;1.60;;;10.40;99.90;;;;;;5076312;28;20043;-76
2023/01/06 12:26:10;;;;;;;7.13;1.88;;;10.50;99.90;;;;;;5077214;28;20063;-76
2023/01/06 12:28:39;;;;;;;4.32;1.80;;;10.40;99.90;;;;;;5075728;28;20053;-75
2023/01/06 12:31:17;;;;;;;7.40;2.85;;;10.40;99.90;;;;;;5076368;28;20072;-76
2023/01/06 12:34:01;;;;;;;4.07;1.80;;;10.40;99.90;;;;;;5076250;28;20040;-73
2023/01/06 12:36:41;;;;;;;5.75;2.10;;;10.40;99.90;;;;;;5076483;28;20041;-76
2023/01/06 12:39:18;;;;;;;4.07;1.42;;;10.30;99.90;;;;;;5076475;28;20127;-75
2023/01/06 12:41:52;;;;;;;10.25;2.33;;;10.30;99.90;;;;;;5075954;28;20048;-75
2023/01/06 12:44:20;;;;;;;5.38;1.65;;;10.30;99.90;;;;;;5075151;28;20127;-76
2023/01/06 12:47:16;;;;;;;4.88;2.75;;;10.30;99.90;;;;;;5075804;28;20045;-75
2023/01/06 12:49:50;;;;;;;4.55;2.35;;;10.20;99.90;;;;;;5041262;28;20067;-75
2023/01/06 12:52:32;;;;;;;3.95;1.55;;;10.20;99.90;;;;;;5075641;28;20045;-75
2023/01/06 12:54:59;;;;;;;9.75;1.85;;;10.20;99.90;;;;;;5076109;28;20084;-77
2023/01/06 12:57:57;;;;;;;5.90;2.00;;;10.20;99.90;;;;;;5075795;28;20535;-75
2023/01/06 13:00:52;;;;;;;5.18;3.10;;;10.20;99.90;;;;;;5075832;28;20040;-77
2023/01/06 13:03:36;;;;;;;3.40;2.30;;;10.20;99.90;;;;;;5076154;28;20052;-76
2023/01/06 13:06:29;;;;;;;7.05;2.70;;;10.30;99.90;;;;;;5075461;28;20044;-76
2023/01/06 13:09:09;;;;;;;9.32;2.72;;;10.30;99.90;;;;;;5075288;28;20051;-75